sensor_id;sensor_type;location;lat;lon;timestamp;P1;durP1;ratioP1;P2;durP2;ratioP2
25231;SDS011;13176;51.140;6.290;2022-08-21T00:01:42;38.78;;;36.30;;
25231;SDS011;13176;51.140;6.290;2022-08-21T00:04:09;38.85;;;36.03;;
25231;SDS011;13176;51.140;6.290;2022-08-21T00:06:40;39.10;;;36.85;;
25231;SDS011;13176;51.140;6.290;2022-08-21T00:09:07;42.28;;;39.35;;
25231;SDS011;13176;51.140;6.290;2022-08-21T00:11:35;38.67;;;36.28;;
25231;SDS011;13176;51.140;6.290;2022-08-21T00:14:04;38.58;;;35.95;;
25231;SDS011;13176;51.140;6.290;2022-08-21T00:16:33;35.00;;;32.88;;
25231;SDS011;13176;51.140;6.290;2022-08-21T00:19:01;34.85;;;32.90;;
25231;SDS011;13176;51.140;6.290;2022-08-21T00:21:28;38.67;;;36.28;;
25231;SDS011;13176;51.140;6.290;2022-08-21T00:23:55;36.72;;;34.35;;
25231;SDS011;13176;51.140;6.290;2022-08-21T00:26:21;37.72;;;35.40;;
25231;SDS011;13176;51.140;6.290;2022-08-21T00:28:48;37.30;;;35.17;;
25231;SDS011;13176;51.140;6.290;2022-08-21T00:31:15;36.80;;;34.65;;
25231;SDS011;13176;51.140;6.290;2022-08-21T00:33:43;35.22;;;32.92;;
25231;SDS011;13176;51.140;6.290;2022-08-21T00:36:10;39.17;;;36.88;;
25231;SDS011;13176;51.140;6.290;2022-08-21T00:38:37;36.15;;;33.75;;
25231;SDS011;13176;51.140;6.290;2022-08-21T00:41:05;39.28;;;36.67;;
25231;SDS011;13176;51.140;6.290;2022-08-21T00:43:54;36.05;;;33.97;;
25231;SDS011;13176;51.140;6.290;2022-08-21T00:46:21;40.15;;;37.83;;
25231;SDS011;13176;51.140;6.290;2022-08-21T00:48:53;38.45;;;36.22;;
25231;SDS011;13176;51.140;6.290;2022-08-21T00:51:25;41.28;;;38.65;;
25231;SDS011;13176;51.140;6.290;2022-08-21T00:54:03;40.17;;;37.42;;
25231;SDS011;13176;51.140;6.290;2022-08-21T00:56:42;40.50;;;38.10;;
25231;SDS011;13176;51.140;6.290;2022-08-21T00:59:08;40.45;;;37.83;;
25231;SDS011;13176;51.140;6.290;2022-08-21T01:01:36;40.10;;;37.60;;
25231;SDS011;13176;51.140;6.290;2022-08-21T01:04:03;39.10;;;36.75;;
25231;SDS011;13176;51.140;6.290;2022-08-21T01:06:30;40.20;;;37.75;;
25231;SDS011;13176;51.140;6.290;2022-08-21T01:08:56;40.40;;;37.90;;
25231;SDS011;13176;51.140;6.290;2022-08-21T01:11:23;42.33;;;39.70;;
25231;SDS011;13176;51.140;6.290;2022-08-21T01:13:51;39.25;;;36.88;;
25231;SDS011;13176;51.140;6.290;2022-08-21T01:16:18;40.30;;;37.80;;
25231;SDS011;13176;51.140;6.290;2022-08-21T01:18:47;39.28;;;37.08;;
25231;SDS011;13176;51.140;6.290;2022-08-21T01:21:17;38.13;;;35.95;;
25231;SDS011;13176;51.140;6.290;2022-08-21T01:23:48;39.03;;;36.53;;
25231;SDS011;13176;51.140;6.290;2022-08-21T01:26:18;38.17;;;35.97;;
25231;SDS011;13176;51.140;6.290;2022-08-21T01:28:58;34.78;;;32.20;;
25231;SDS011;13176;51.140;6.290;2022-08-21T01:33:55;34.30;;;32.28;;
25231;SDS011;13176;51.140;6.290;2022-08-21T01:36:22;35.78;;;33.88;;
25231;SDS011;13176;51.140;6.290;2022-08-21T01:38:49;39.20;;;36.78;;
25231;SDS011;13176;51.140;6.290;2022-08-21T01:41:16;39.92;;;37.50;;
25231;SDS011;13176;51.140;6.290;2022-08-21T01:43:43;40.40;;;38.10;;
25231;SDS011;13176;51.140;6.290;2022-08-21T01:46:11;42.08;;;39.53;;
25231;SDS011;13176;51.140;6.290;2022-08-21T01:48:38;43.30;;;40.58;;
25231;SDS011;13176;51.140;6.290;2022-08-21T01:51:06;43.85;;;41.15;;
25231;SDS011;13176;51.140;6.290;2022-08-21T01:53:33;43.28;;;40.65;;
25231;SDS011;13176;51.140;6.290;2022-08-21T01:56:04;48.30;;;45.25;;
25231;SDS011;13176;51.140;6.290;2022-08-21T01:58:37;47.40;;;43.30;;
25231;SDS011;13176;51.140;6.290;2022-08-21T02:01:05;47.70;;;44.92;;
25231;SDS011;13176;51.140;6.290;2022-08-21T02:03:31;46.15;;;43.35;;
25231;SDS011;13176;51.140;6.290;2022-08-21T02:06:01;39.63;;;37.35;;
25231;SDS011;13176;51.140;6.290;2022-08-21T02:08:30;42.40;;;39.45;;
25231;SDS011;13176;51.140;6.290;2022-08-21T02:10:57;41.25;;;38.80;;
25231;SDS011;13176;51.140;6.290;2022-08-21T02:13:24;38.83;;;36.65;;
25231;SDS011;13176;51.140;6.290;2022-08-21T02:15:50;39.88;;;37.63;;
25231;SDS011;13176;51.140;6.290;2022-08-21T02:18:17;39.92;;;37.58;;
25231;SDS011;13176;51.140;6.290;2022-08-21T02:20:45;46.20;;;42.65;;
25231;SDS011;13176;51.140;6.290;2022-08-21T02:23:13;42.03;;;39.42;;
25231;SDS011;13176;51.140;6.290;2022-08-21T02:25:39;42.83;;;40.28;;
25231;SDS011;13176;51.140;6.290;2022-08-21T02:28:07;43.13;;;40.28;;
25231;SDS011;13176;51.140;6.290;2022-08-21T02:30:38;43.30;;;40.20;;
25231;SDS011;13176;51.140;6.290;2022-08-21T02:33:07;38.15;;;35.85;;
25231;SDS011;13176;51.140;6.290;2022-08-21T02:35:36;39.92;;;37.55;;
25231;SDS011;13176;51.140;6.290;2022-08-21T02:38:07;40.75;;;38.30;;
25231;SDS011;13176;51.140;6.290;2022-08-21T02:40:39;39.50;;;37.03;;
25231;SDS011;13176;51.140;6.290;2022-08-21T02:43:13;43.13;;;40.33;;
25231;SDS011;13176;51.140;6.290;2022-08-21T02:45:41;48.35;;;45.05;;
25231;SDS011;13176;51.140;6.290;2022-08-21T02:48:10;49.58;;;46.75;;
25231;SDS011;13176;51.140;6.290;2022-08-21T02:50:41;47.97;;;44.92;;
25231;SDS011;13176;51.140;6.290;2022-08-21T02:53:10;50.95;;;47.72;;
25231;SDS011;13176;51.140;6.290;2022-08-21T02:55:40;50.63;;;47.50;;
25231;SDS011;13176;51.140;6.290;2022-08-21T02:58:07;48.90;;;46.00;;
25231;SDS011;13176;51.140;6.290;2022-08-21T03:00:34;48.05;;;45.17;;
25231;SDS011;13176;51.140;6.290;2022-08-21T03:03:02;44.88;;;42.15;;
25231;SDS011;13176;51.140;6.290;2022-08-21T03:05:30;44.47;;;41.88;;
25231;SDS011;13176;51.140;6.290;2022-08-21T03:07:59;43.58;;;40.92;;
25231;SDS011;13176;51.140;6.290;2022-08-21T03:10:26;44.85;;;41.97;;
25231;SDS011;13176;51.140;6.290;2022-08-21T03:12:54;42.85;;;40.17;;
25231;SDS011;13176;51.140;6.290;2022-08-21T03:15:21;47.22;;;44.15;;
25231;SDS011;13176;51.140;6.290;2022-08-21T03:17:49;43.17;;;40.55;;
25231;SDS011;13176;51.140;6.290;2022-08-21T03:20:21;45.25;;;42.05;;
25231;SDS011;13176;51.140;6.290;2022-08-21T03:22:52;47.35;;;44.22;;
25231;SDS011;13176;51.140;6.290;2022-08-21T03:25:20;41.53;;;38.83;;
25231;SDS011;13176;51.140;6.290;2022-08-21T03:28:06;43.03;;;40.13;;
25231;SDS011;13176;51.140;6.290;2022-08-21T03:30:42;47.70;;;44.95;;
25231;SDS011;13176;51.140;6.290;2022-08-21T03:33:10;43.47;;;40.65;;
25231;SDS011;13176;51.140;6.290;2022-08-21T03:35:41;47.58;;;44.55;;
25231;SDS011;13176;51.140;6.290;2022-08-21T03:38:12;44.70;;;41.92;;
25231;SDS011;13176;51.140;6.290;2022-08-21T03:40:42;48.53;;;45.55;;
25231;SDS011;13176;51.140;6.290;2022-08-21T03:43:09;45.67;;;42.78;;
25231;SDS011;13176;51.140;6.290;2022-08-21T03:45:36;44.70;;;41.97;;
25231;SDS011;13176;51.140;6.290;2022-08-21T03:48:03;40.47;;;38.05;;
25231;SDS011;13176;51.140;6.290;2022-08-21T03:50:34;48.17;;;45.28;;
25231;SDS011;13176;51.140;6.290;2022-08-21T03:53:06;46.13;;;43.35;;
25231;SDS011;13176;51.140;6.290;2022-08-21T03:55:43;41.13;;;38.70;;
25231;SDS011;13176;51.140;6.290;2022-08-21T03:58:14;50.78;;;47.35;;
25231;SDS011;13176;51.140;6.290;2022-08-21T04:00:46;43.75;;;41.03;;
25231;SDS011;13176;51.140;6.290;2022-08-21T04:03:16;47.95;;;44.70;;
25231;SDS011;13176;51.140;6.290;2022-08-21T04:05:43;45.90;;;42.78;;
25231;SDS011;13176;51.140;6.290;2022-08-21T04:08:12;45.20;;;42.40;;
25231;SDS011;13176;51.140;6.290;2022-08-21T04:10:39;45.85;;;43.03;;
25231;SDS011;13176;51.140;6.290;2022-08-21T04:13:07;45.78;;;43.05;;
25231;SDS011;13176;51.140;6.290;2022-08-21T04:15:34;47.53;;;44.47;;
25231;SDS011;13176;51.140;6.290;2022-08-21T04:18:02;43.13;;;40.53;;
25231;SDS011;13176;51.140;6.290;2022-08-21T04:20:29;44.90;;;42.03;;
25231;SDS011;13176;51.140;6.290;2022-08-21T04:22:56;40.70;;;38.25;;
25231;SDS011;13176;51.140;6.290;2022-08-21T04:25:23;46.83;;;44.03;;
25231;SDS011;13176;51.140;6.290;2022-08-21T04:27:51;44.47;;;41.67;;
25231;SDS011;13176;51.140;6.290;2022-08-21T04:30:18;46.97;;;43.97;;
25231;SDS011;13176;51.140;6.290;2022-08-21T04:32:46;44.03;;;41.25;;
25231;SDS011;13176;51.140;6.290;2022-08-21T04:35:15;40.30;;;37.88;;
25231;SDS011;13176;51.140;6.290;2022-08-21T04:37:46;45.78;;;42.85;;
25231;SDS011;13176;51.140;6.290;2022-08-21T04:40:14;43.75;;;41.17;;
25231;SDS011;13176;51.140;6.290;2022-08-21T04:42:43;44.08;;;41.55;;
25231;SDS011;13176;51.140;6.290;2022-08-21T04:45:16;43.00;;;40.38;;
25231;SDS011;13176;51.140;6.290;2022-08-21T04:47:49;45.90;;;42.92;;
25231;SDS011;13176;51.140;6.290;2022-08-21T04:50:19;48.75;;;45.63;;
25231;SDS011;13176;51.140;6.290;2022-08-21T04:52:48;42.38;;;39.80;;
25231;SDS011;13176;51.140;6.290;2022-08-21T04:55:15;45.42;;;42.63;;
25231;SDS011;13176;51.140;6.290;2022-08-21T04:57:44;44.55;;;41.72;;
25231;SDS011;13176;51.140;6.290;2022-08-21T05:00:14;47.47;;;44.67;;
25231;SDS011;13176;51.140;6.290;2022-08-21T05:02:45;47.78;;;44.65;;
25231;SDS011;13176;51.140;6.290;2022-08-21T05:05:13;44.90;;;42.25;;
25231;SDS011;13176;51.140;6.290;2022-08-21T05:07:42;48.35;;;45.40;;
25231;SDS011;13176;51.140;6.290;2022-08-21T05:10:10;43.75;;;40.85;;
25231;SDS011;13176;51.140;6.290;2022-08-21T05:12:39;47.00;;;43.78;;
25231;SDS011;13176;51.140;6.290;2022-08-21T05:15:08;42.05;;;39.45;;
25231;SDS011;13176;51.140;6.290;2022-08-21T05:17:39;40.50;;;37.92;;
25231;SDS011;13176;51.140;6.290;2022-08-21T05:20:18;42.60;;;39.92;;
25231;SDS011;13176;51.140;6.290;2022-08-21T05:22:45;37.35;;;34.90;;
25231;SDS011;13176;51.140;6.290;2022-08-21T05:25:12;45.70;;;42.70;;
25231;SDS011;13176;51.140;6.290;2022-08-21T05:27:38;44.28;;;41.53;;
25231;SDS011;13176;51.140;6.290;2022-08-21T05:30:08;43.15;;;40.42;;
25231;SDS011;13176;51.140;6.290;2022-08-21T05:32:35;44.10;;;41.45;;
25231;SDS011;13176;51.140;6.290;2022-08-21T05:35:03;47.10;;;44.13;;
25231;SDS011;13176;51.140;6.290;2022-08-21T05:37:31;45.08;;;42.17;;
25231;SDS011;13176;51.140;6.290;2022-08-21T05:39:59;45.08;;;42.22;;
25231;SDS011;13176;51.140;6.290;2022-08-21T05:42:46;42.72;;;40.03;;
25231;SDS011;13176;51.140;6.290;2022-08-21T05:45:23;41.88;;;39.22;;
25231;SDS011;13176;51.140;6.290;2022-08-21T05:48:09;36.63;;;34.33;;
25231;SDS011;13176;51.140;6.290;2022-08-21T05:50:41;39.53;;;36.78;;
25231;SDS011;13176;51.140;6.290;2022-08-21T05:53:08;33.40;;;31.15;;
25231;SDS011;13176;51.140;6.290;2022-08-21T05:55:36;44.72;;;42.13;;
25231;SDS011;13176;51.140;6.290;2022-08-21T05:58:10;36.40;;;34.35;;
25231;SDS011;13176;51.140;6.290;2022-08-21T06:00:37;35.47;;;33.00;;
25231;SDS011;13176;51.140;6.290;2022-08-21T06:03:04;33.63;;;31.48;;
25231;SDS011;13176;51.140;6.290;2022-08-21T06:05:30;37.10;;;34.63;;
25231;SDS011;13176;51.140;6.290;2022-08-21T06:08:02;39.30;;;36.85;;
25231;SDS011;13176;51.140;6.290;2022-08-21T06:10:29;47.15;;;44.00;;
25231;SDS011;13176;51.140;6.290;2022-08-21T06:12:56;42.15;;;39.42;;
25231;SDS011;13176;51.140;6.290;2022-08-21T06:15:23;39.08;;;36.38;;
25231;SDS011;13176;51.140;6.290;2022-08-21T06:17:49;29.48;;;27.58;;
25231;SDS011;13176;51.140;6.290;2022-08-21T06:20:17;38.85;;;36.13;;
25231;SDS011;13176;51.140;6.290;2022-08-21T06:22:44;38.50;;;36.03;;
25231;SDS011;13176;51.140;6.290;2022-08-21T06:25:10;39.25;;;36.63;;
25231;SDS011;13176;51.140;6.290;2022-08-21T06:27:37;34.25;;;32.17;;
25231;SDS011;13176;51.140;6.290;2022-08-21T06:30:04;40.42;;;38.00;;
25231;SDS011;13176;51.140;6.290;2022-08-21T06:32:32;35.55;;;33.38;;
25231;SDS011;13176;51.140;6.290;2022-08-21T06:34:58;34.95;;;32.80;;
25231;SDS011;13176;51.140;6.290;2022-08-21T06:37:25;35.35;;;32.78;;
25231;SDS011;13176;51.140;6.290;2022-08-21T06:39:51;32.40;;;30.40;;
25231;SDS011;13176;51.140;6.290;2022-08-21T06:42:18;40.08;;;37.67;;
25231;SDS011;13176;51.140;6.290;2022-08-21T06:44:45;38.40;;;36.13;;
25231;SDS011;13176;51.140;6.290;2022-08-21T06:47:14;36.50;;;34.22;;
25231;SDS011;13176;51.140;6.290;2022-08-21T06:49:40;36.95;;;34.42;;
25231;SDS011;13176;51.140;6.290;2022-08-21T06:52:11;37.47;;;35.13;;
25231;SDS011;13176;51.140;6.290;2022-08-21T06:54:39;34.55;;;32.22;;
25231;SDS011;13176;51.140;6.290;2022-08-21T06:57:14;33.90;;;31.70;;
25231;SDS011;13176;51.140;6.290;2022-08-21T06:59:40;31.80;;;29.70;;
25231;SDS011;13176;51.140;6.290;2022-08-21T07:02:07;29.58;;;27.27;;
25231;SDS011;13176;51.140;6.290;2022-08-21T07:04:33;29.02;;;27.10;;
25231;SDS011;13176;51.140;6.290;2022-08-21T07:07:00;31.65;;;29.75;;
25231;SDS011;13176;51.140;6.290;2022-08-21T07:09:26;28.92;;;26.98;;
25231;SDS011;13176;51.140;6.290;2022-08-21T07:11:53;28.92;;;26.65;;
25231;SDS011;13176;51.140;6.290;2022-08-21T07:14:21;29.55;;;27.55;;
25231;SDS011;13176;51.140;6.290;2022-08-21T07:16:48;28.92;;;26.77;;
25231;SDS011;13176;51.140;6.290;2022-08-21T07:19:16;29.10;;;26.83;;
25231;SDS011;13176;51.140;6.290;2022-08-21T07:21:44;27.83;;;26.02;;
25231;SDS011;13176;51.140;6.290;2022-08-21T07:24:10;26.70;;;24.77;;
25231;SDS011;13176;51.140;6.290;2022-08-21T07:26:37;26.42;;;24.83;;
25231;SDS011;13176;51.140;6.290;2022-08-21T07:29:03;26.98;;;25.13;;
25231;SDS011;13176;51.140;6.290;2022-08-21T07:31:30;26.55;;;24.42;;
25231;SDS011;13176;51.140;6.290;2022-08-21T07:33:57;27.27;;;25.60;;
25231;SDS011;13176;51.140;6.290;2022-08-21T07:36:24;28.98;;;26.77;;
25231;SDS011;13176;51.140;6.290;2022-08-21T07:38:50;28.33;;;26.63;;
25231;SDS011;13176;51.140;6.290;2022-08-21T07:41:19;25.95;;;24.25;;
25231;SDS011;13176;51.140;6.290;2022-08-21T07:43:47;22.42;;;20.70;;
25231;SDS011;13176;51.140;6.290;2022-08-21T07:46:17;21.88;;;20.48;;
25231;SDS011;13176;51.140;6.290;2022-08-21T07:48:44;20.20;;;18.77;;
25231;SDS011;13176;51.140;6.290;2022-08-21T07:51:11;21.65;;;19.63;;
25231;SDS011;13176;51.140;6.290;2022-08-21T07:53:40;19.30;;;17.92;;
25231;SDS011;13176;51.140;6.290;2022-08-21T07:56:09;17.17;;;15.73;;
25231;SDS011;13176;51.140;6.290;2022-08-21T07:58:37;17.67;;;16.35;;
25231;SDS011;13176;51.140;6.290;2022-08-21T08:01:04;17.15;;;15.93;;
25231;SDS011;13176;51.140;6.290;2022-08-21T08:03:34;17.02;;;15.90;;
25231;SDS011;13176;51.140;6.290;2022-08-21T08:06:00;18.05;;;16.88;;
25231;SDS011;13176;51.140;6.290;2022-08-21T08:08:28;17.42;;;16.20;;
25231;SDS011;13176;51.140;6.290;2022-08-21T08:10:55;16.50;;;15.38;;
25231;SDS011;13176;51.140;6.290;2022-08-21T08:13:23;15.65;;;14.45;;
25231;SDS011;13176;51.140;6.290;2022-08-21T08:15:50;14.40;;;13.50;;
25231;SDS011;13176;51.140;6.290;2022-08-21T08:18:17;14.75;;;13.57;;
25231;SDS011;13176;51.140;6.290;2022-08-21T08:20:44;14.65;;;13.25;;
25231;SDS011;13176;51.140;6.290;2022-08-21T08:23:11;16.73;;;15.48;;
25231;SDS011;13176;51.140;6.290;2022-08-21T08:25:38;13.20;;;12.43;;
25231;SDS011;13176;51.140;6.290;2022-08-21T08:28:05;13.15;;;12.23;;
25231;SDS011;13176;51.140;6.290;2022-08-21T08:30:43;15.65;;;14.63;;
25231;SDS011;13176;51.140;6.290;2022-08-21T08:33:11;15.65;;;14.55;;
25231;SDS011;13176;51.140;6.290;2022-08-21T08:35:37;21.55;;;19.65;;
25231;SDS011;13176;51.140;6.290;2022-08-21T08:38:04;19.65;;;18.35;;
25231;SDS011;13176;51.140;6.290;2022-08-21T08:40:38;17.10;;;16.00;;
25231;SDS011;13176;51.140;6.290;2022-08-21T08:43:11;18.23;;;16.80;;
25231;SDS011;13176;51.140;6.290;2022-08-21T08:45:40;16.25;;;15.05;;
25231;SDS011;13176;51.140;6.290;2022-08-21T08:48:13;18.05;;;16.70;;
25231;SDS011;13176;51.140;6.290;2022-08-21T08:50:49;14.10;;;12.90;;
25231;SDS011;13176;51.140;6.290;2022-08-21T08:53:25;11.88;;;11.10;;
25231;SDS011;13176;51.140;6.290;2022-08-21T08:56:00;12.75;;;11.70;;
25231;SDS011;13176;51.140;6.290;2022-08-21T08:58:30;10.75;;;9.88;;
25231;SDS011;13176;51.140;6.290;2022-08-21T09:01:00;9.52;;;8.73;;
25231;SDS011;13176;51.140;6.290;2022-08-21T09:03:27;10.55;;;9.75;;
25231;SDS011;13176;51.140;6.290;2022-08-21T09:06:03;10.95;;;10.23;;
25231;SDS011;13176;51.140;6.290;2022-08-21T09:08:37;9.60;;;8.90;;
25231;SDS011;13176;51.140;6.290;2022-08-21T09:27:49;9.30;;;8.73;;
25231;SDS011;13176;51.140;6.290;2022-08-21T09:30:17;9.85;;;9.15;;
25231;SDS011;13176;51.140;6.290;2022-08-21T09:32:47;10.18;;;9.63;;
25231;SDS011;13176;51.140;6.290;2022-08-21T09:35:15;8.32;;;7.82;;
25231;SDS011;13176;51.140;6.290;2022-08-21T09:40:26;8.73;;;8.23;;
25231;SDS011;13176;51.140;6.290;2022-08-21T09:43:01;8.63;;;7.88;;
25231;SDS011;13176;51.140;6.290;2022-08-21T09:45:31;7.63;;;7.20;;
25231;SDS011;13176;51.140;6.290;2022-08-21T09:48:10;9.00;;;8.30;;
25231;SDS011;13176;51.140;6.290;2022-08-21T09:50:41;8.27;;;7.57;;
25231;SDS011;13176;51.140;6.290;2022-08-21T09:53:16;8.38;;;7.78;;
25231;SDS011;13176;51.140;6.290;2022-08-21T09:55:53;8.60;;;8.00;;
25231;SDS011;13176;51.140;6.290;2022-08-21T09:58:42;8.13;;;7.53;;
25231;SDS011;13176;51.140;6.290;2022-08-21T10:01:18;8.48;;;7.93;;
25231;SDS011;13176;51.140;6.290;2022-08-21T10:04:02;8.35;;;7.60;;
25231;SDS011;13176;51.140;6.290;2022-08-21T10:09:06;6.82;;;6.28;;
25231;SDS011;13176;51.140;6.290;2022-08-21T10:11:49;9.63;;;8.68;;
25231;SDS011;13176;51.140;6.290;2022-08-21T10:14:44;7.05;;;6.35;;
25231;SDS011;13176;51.140;6.290;2022-08-21T10:17:17;7.18;;;6.63;;
25231;SDS011;13176;51.140;6.290;2022-08-21T10:27:49;8.15;;;7.60;;
25231;SDS011;13176;51.140;6.290;2022-08-21T10:30:35;8.07;;;7.28;;
25231;SDS011;13176;51.140;6.290;2022-08-21T10:33:19;7.15;;;6.63;;
25231;SDS011;13176;51.140;6.290;2022-08-21T10:42:21;9.45;;;8.65;;
25231;SDS011;13176;51.140;6.290;2022-08-21T10:48:13;8.65;;;7.75;;
25231;SDS011;13176;51.140;6.290;2022-08-21T10:51:17;8.23;;;7.78;;
25231;SDS011;13176;51.140;6.290;2022-08-21T10:54:07;8.20;;;7.40;;
25231;SDS011;13176;51.140;6.290;2022-08-21T10:56:51;8.45;;;7.85;;
25231;SDS011;13176;51.140;6.290;2022-08-21T10:59:28;9.00;;;8.20;;
25231;SDS011;13176;51.140;6.290;2022-08-21T11:02:15;8.60;;;8.02;;
25231;SDS011;13176;51.140;6.290;2022-08-21T11:05:14;8.15;;;7.60;;
25231;SDS011;13176;51.140;6.290;2022-08-21T11:07:53;9.00;;;8.40;;
25231;SDS011;13176;51.140;6.290;2022-08-21T11:16:40;9.68;;;8.77;;
25231;SDS011;13176;51.140;6.290;2022-08-21T11:19:21;9.63;;;8.93;;
25231;SDS011;13176;51.140;6.290;2022-08-21T11:25:00;12.32;;;11.52;;
25231;SDS011;13176;51.140;6.290;2022-08-21T11:28:00;12.40;;;11.60;;
25231;SDS011;13176;51.140;6.290;2022-08-21T11:36:50;10.98;;;10.27;;
25231;SDS011;13176;51.140;6.290;2022-08-21T11:39:28;12.07;;;11.18;;
25231;SDS011;13176;51.140;6.290;2022-08-21T11:50:55;10.98;;;10.13;;
25231;SDS011;13176;51.140;6.290;2022-08-21T11:53:28;13.40;;;12.50;;
25231;SDS011;13176;51.140;6.290;2022-08-21T11:56:08;13.93;;;12.95;;
25231;SDS011;13176;51.140;6.290;2022-08-21T11:58:46;12.05;;;11.25;;
25231;SDS011;13176;51.140;6.290;2022-08-21T12:01:19;12.60;;;11.60;;
25231;SDS011;13176;51.140;6.290;2022-08-21T12:03:55;11.45;;;10.75;;
25231;SDS011;13176;51.140;6.290;2022-08-21T12:06:30;13.55;;;12.65;;
25231;SDS011;13176;51.140;6.290;2022-08-21T12:12:10;13.10;;;12.23;;
25231;SDS011;13176;51.140;6.290;2022-08-21T12:14:43;14.15;;;12.98;;
25231;SDS011;13176;51.140;6.290;2022-08-21T12:17:21;10.98;;;10.27;;
25231;SDS011;13176;51.140;6.290;2022-08-21T12:19:57;15.27;;;14.27;;
25231;SDS011;13176;51.140;6.290;2022-08-21T12:22:41;14.75;;;13.65;;
25231;SDS011;13176;51.140;6.290;2022-08-21T12:25:17;14.52;;;13.60;;
25231;SDS011;13176;51.140;6.290;2022-08-21T12:27:49;12.73;;;11.77;;
25231;SDS011;13176;51.140;6.290;2022-08-21T12:33:00;10.02;;;9.20;;
25231;SDS011;13176;51.140;6.290;2022-08-21T12:35:40;11.98;;;11.02;;
25231;SDS011;13176;51.140;6.290;2022-08-21T12:38:14;9.25;;;8.55;;
25231;SDS011;13176;51.140;6.290;2022-08-21T12:40:56;7.75;;;7.25;;
25231;SDS011;13176;51.140;6.290;2022-08-21T12:43:27;8.00;;;7.40;;
25231;SDS011;13176;51.140;6.290;2022-08-21T12:46:06;10.60;;;9.93;;
25231;SDS011;13176;51.140;6.290;2022-08-21T12:48:52;8.93;;;6.80;;
25231;SDS011;13176;51.140;6.290;2022-08-21T12:51:47;7.28;;;6.80;;
25231;SDS011;13176;51.140;6.290;2022-08-21T12:54:22;9.80;;;9.00;;
25231;SDS011;13176;51.140;6.290;2022-08-21T12:56:56;9.60;;;9.00;;
25231;SDS011;13176;51.140;6.290;2022-08-21T12:59:25;9.90;;;9.23;;
25231;SDS011;13176;51.140;6.290;2022-08-21T13:01:52;8.73;;;8.10;;
25231;SDS011;13176;51.140;6.290;2022-08-21T13:04:22;11.27;;;10.60;;
25231;SDS011;13176;51.140;6.290;2022-08-21T13:06:54;10.98;;;10.18;;
25231;SDS011;13176;51.140;6.290;2022-08-21T13:09:26;9.18;;;8.52;;
25231;SDS011;13176;51.140;6.290;2022-08-21T13:11:55;11.25;;;10.35;;
25231;SDS011;13176;51.140;6.290;2022-08-21T13:14:45;9.93;;;9.32;;
25231;SDS011;13176;51.140;6.290;2022-08-21T13:17:13;10.07;;;9.52;;
25231;SDS011;13176;51.140;6.290;2022-08-21T13:19:52;11.55;;;10.85;;
25231;SDS011;13176;51.140;6.290;2022-08-21T13:22:20;9.98;;;9.18;;
25231;SDS011;13176;51.140;6.290;2022-08-21T13:24:59;8.00;;;7.30;;
25231;SDS011;13176;51.140;6.290;2022-08-21T13:27:31;7.68;;;7.07;;
25231;SDS011;13176;51.140;6.290;2022-08-21T13:30:10;7.95;;;7.47;;
25231;SDS011;13176;51.140;6.290;2022-08-21T13:32:40;7.22;;;6.70;;
25231;SDS011;13176;51.140;6.290;2022-08-21T13:35:13;8.23;;;7.53;;
25231;SDS011;13176;51.140;6.290;2022-08-21T13:37:43;13.20;;;12.45;;
25231;SDS011;13176;51.140;6.290;2022-08-21T13:40:13;12.02;;;11.32;;
25231;SDS011;13176;51.140;6.290;2022-08-21T13:42:42;6.90;;;6.38;;
25231;SDS011;13176;51.140;6.290;2022-08-21T13:45:12;7.20;;;6.70;;
25231;SDS011;13176;51.140;6.290;2022-08-21T13:47:40;6.28;;;5.88;;
25231;SDS011;13176;51.140;6.290;2022-08-21T13:50:07;8.48;;;7.88;;
25231;SDS011;13176;51.140;6.290;2022-08-21T13:52:44;7.68;;;7.13;;
25231;SDS011;13176;51.140;6.290;2022-08-21T13:55:15;6.95;;;6.45;;
25231;SDS011;13176;51.140;6.290;2022-08-21T13:57:43;7.03;;;6.63;;
25231;SDS011;13176;51.140;6.290;2022-08-21T14:00:11;7.32;;;6.10;;
25231;SDS011;13176;51.140;6.290;2022-08-21T14:02:39;7.85;;;7.35;;
25231;SDS011;13176;51.140;6.290;2022-08-21T14:05:10;6.82;;;6.38;;
25231;SDS011;13176;51.140;6.290;2022-08-21T14:07:46;8.48;;;7.97;;
25231;SDS011;13176;51.140;6.290;2022-08-21T14:10:22;8.95;;;8.35;;
25231;SDS011;13176;51.140;6.290;2022-08-21T14:12:54;6.05;;;5.60;;
25231;SDS011;13176;51.140;6.290;2022-08-21T14:15:26;11.68;;;10.88;;
25231;SDS011;13176;51.140;6.290;2022-08-21T14:18:10;7.70;;;7.28;;
25231;SDS011;13176;51.140;6.290;2022-08-21T14:20:40;13.63;;;12.68;;
25231;SDS011;13176;51.140;6.290;2022-08-21T14:23:06;18.25;;;17.10;;
25231;SDS011;13176;51.140;6.290;2022-08-21T14:25:38;16.90;;;15.90;;
25231;SDS011;13176;51.140;6.290;2022-08-21T14:28:19;14.82;;;14.02;;
25231;SDS011;13176;51.140;6.290;2022-08-21T14:30:53;15.38;;;14.48;;
25231;SDS011;13176;51.140;6.290;2022-08-21T14:33:25;18.25;;;16.88;;
25231;SDS011;13176;51.140;6.290;2022-08-21T14:35:53;15.25;;;14.30;;
25231;SDS011;13176;51.140;6.290;2022-08-21T14:38:21;14.85;;;13.50;;
25231;SDS011;13176;51.140;6.290;2022-08-21T14:40:52;10.75;;;10.07;;
25231;SDS011;13176;51.140;6.290;2022-08-21T14:43:21;10.00;;;9.50;;
25231;SDS011;13176;51.140;6.290;2022-08-21T14:45:47;12.02;;;11.10;;
25231;SDS011;13176;51.140;6.290;2022-08-21T14:48:14;12.43;;;11.65;;
25231;SDS011;13176;51.140;6.290;2022-08-21T14:50:40;9.48;;;8.82;;
25231;SDS011;13176;51.140;6.290;2022-08-21T14:53:07;13.77;;;12.77;;
25231;SDS011;13176;51.140;6.290;2022-08-21T14:55:36;10.80;;;10.20;;
25231;SDS011;13176;51.140;6.290;2022-08-21T14:58:23;9.70;;;9.02;;
25231;SDS011;13176;51.140;6.290;2022-08-21T15:00:53;9.77;;;9.18;;
25231;SDS011;13176;51.140;6.290;2022-08-21T15:03:22;8.93;;;8.32;;
25231;SDS011;13176;51.140;6.290;2022-08-21T15:05:48;9.00;;;8.43;;
25231;SDS011;13176;51.140;6.290;2022-08-21T15:08:16;8.48;;;7.95;;
25231;SDS011;13176;51.140;6.290;2022-08-21T15:10:43;7.82;;;7.22;;
25231;SDS011;13176;51.140;6.290;2022-08-21T15:13:30;7.57;;;6.97;;
25231;SDS011;13176;51.140;6.290;2022-08-21T15:15:57;7.35;;;6.85;;
25231;SDS011;13176;51.140;6.290;2022-08-21T15:18:24;6.68;;;6.10;;
25231;SDS011;13176;51.140;6.290;2022-08-21T15:20:53;7.03;;;6.47;;
25231;SDS011;13176;51.140;6.290;2022-08-21T15:23:19;7.85;;;7.20;;
25231;SDS011;13176;51.140;6.290;2022-08-21T15:25:47;7.25;;;6.75;;
25231;SDS011;13176;51.140;6.290;2022-08-21T15:28:15;10.40;;;9.50;;
25231;SDS011;13176;51.140;6.290;2022-08-21T15:30:43;8.20;;;7.68;;
25231;SDS011;13176;51.140;6.290;2022-08-21T15:33:11;7.07;;;6.60;;
25231;SDS011;13176;51.140;6.290;2022-08-21T15:35:38;6.68;;;6.15;;
25231;SDS011;13176;51.140;6.290;2022-08-21T15:38:06;7.05;;;6.50;;
25231;SDS011;13176;51.140;6.290;2022-08-21T15:40:36;6.90;;;6.40;;
25231;SDS011;13176;51.140;6.290;2022-08-21T15:43:23;6.70;;;6.10;;
25231;SDS011;13176;51.140;6.290;2022-08-21T15:46:00;6.38;;;5.88;;
25231;SDS011;13176;51.140;6.290;2022-08-21T15:48:27;6.50;;;6.00;;
25231;SDS011;13176;51.140;6.290;2022-08-21T15:50:54;6.47;;;5.97;;
25231;SDS011;13176;51.140;6.290;2022-08-21T15:53:21;6.28;;;5.88;;
25231;SDS011;13176;51.140;6.290;2022-08-21T15:55:47;6.40;;;5.80;;
25231;SDS011;13176;51.140;6.290;2022-08-21T15:58:14;6.65;;;6.18;;
25231;SDS011;13176;51.140;6.290;2022-08-21T16:00:43;8.30;;;6.68;;
25231;SDS011;13176;51.140;6.290;2022-08-21T16:03:11;7.05;;;6.43;;